Latest Weather Observations for Macquarie Island*

IDT60801

Issued at 7:31 pm EST Friday 1 July 2016 (issued every 30 minutes, with the page automatically refreshed every 10 minutes)

About weather observations | Map of weather stations | Latest weather observations for ANT | Other Formats
Station Details ID: 300004 Name: MACQUARIE ISLAND Lat: -54.50 Lon: 158.94 Height: 6.0 m
Data from the previous 72 hours. | See also: Recent months at Macquarie Island*
Date/Time
EST
Temp
°C
App
Temp
°C
Dew
Point
°C
Rel
Hum
%
Delta-T
°C
Wind Press
QNH
hPa
Press
MSL
hPa
Rain since
9am
mm
Dir  Spd
km/h
Gust
km/h
Spd
kts
Gust
kts
01/07:30pm 6.6 -7.5 5.4 92 0.5 NNW 69 83 37 45 984.4 - 1.6
01/07:19pm 6.7 -7.0 5.5 92 0.5 NNW 67 87 36 47 984.4 - 1.4
01/07:00pm 6.6 -7.2 5.4 92 0.5 NNW 67 83 36 45 985.0 - 1.0
01/06:30pm 6.7 -6.7 5.5 92 0.5 NNW 65 78 35 42 985.4 - 0.6
01/06:00pm 6.5 -6.2 5.3 92 0.5 NNW 61 72 33 39 985.9 986.2 0.6
01/05:30pm 6.4 -6.3 5.2 92 0.5 NNW 61 72 33 39 986.6 - 0.6
01/05:00pm 6.5 -5.4 5.1 91 0.6 NNW 57 67 31 36 987.2 - 0.2
01/04:30pm 6.6 -5.8 4.9 89 0.7 NNW 59 70 32 38 987.7 - 0.0
01/04:00pm 6.5 -5.5 5.0 90 0.7 NNW 57 69 31 37 988.0 - 0.0
01/03:30pm 6.5 -5.3 4.8 89 0.7 NNW 56 67 30 36 988.5 - 0.0
01/03:00pm 6.5 -5.3 4.8 89 0.7 NNW 56 67 30 36 989.0 989.3 0.0
01/02:30pm 6.6 -5.4 4.9 89 0.7 NNW 57 72 31 39 989.1 - 0.0
01/02:00pm 6.4 -5.0 4.7 89 0.7 NNW 54 61 29 33 989.6 - 0.0
01/01:30pm 6.4 -5.4 4.7 89 0.7 NNW 56 65 30 35 990.1 - 0.0
01/01:00pm 6.4 -4.6 4.9 90 0.7 NNW 52 61 28 33 990.3 - 0.0
01/12:30pm 6.4 -4.2 4.9 90 0.7 NNW 50 65 27 35 990.7 - 0.0
01/12:00pm 6.4 -4.2 4.9 90 0.7 NNW 50 57 27 31 991.2 991.5 0.0
01/11:30am 6.3 -4.0 4.9 91 0.6 NNW 48 56 26 30 991.6 - 0.0
01/11:00am 6.3 -3.5 5.3 93 0.4 NNW 46 54 25 29 991.9 - 0.0
01/10:30am 6.4 -3.0 5.5 94 0.4 NNW 44 52 24 28 992.4 - 0.0
01/10:00am 6.3 -2.5 5.6 95 0.3 NNW 41 48 22 26 992.8 - 0.0
01/09:30am 6.2 -1.5 5.5 95 0.3 NNW 35 39 19 21 993.0 - 0.0
01/09:00am 6.2 -1.8 5.5 95 0.3 NW 37 52 20 28 993.2 993.5 4.6
01/08:30am 6.3 -2.9 5.6 95 0.3 NNW 43 50 23 27 993.1 - 4.6
01/08:00am 6.4 -2.0 5.7 95 0.3 NW 39 48 21 26 993.4 - 4.4
01/07:30am 6.6 -1.0 5.7 94 0.4 NW 35 41 19 22 993.5 - 4.4
01/07:00am 6.9 -4.3 6.0 94 0.4 NNW 54 63 29 34 993.2 - 4.4
01/06:30am 7.0 -4.2 6.1 94 0.4 NNW 54 65 29 35 993.1 - 4.0
01/06:00am 7.3 -4.4 6.2 93 0.5 NNW 57 69 31 37 993.2 993.5 4.0
01/05:30am 7.2 -5.3 6.1 93 0.5 NNW 61 74 33 40 993.2 - 4.0
01/05:00am 7.3 -5.9 6.2 93 0.5 NNW 65 76 35 41 992.8 - 3.6
01/04:30am 7.4 -5.4 6.5 94 0.4 NNW 63 72 34 39 992.7 - 3.2
01/04:00am 7.4 -4.7 6.3 93 0.5 NNW 59 70 32 38 993.0 - 2.4
01/03:30am 7.5 -4.9 6.3 92 0.5 NNW 61 76 33 41 993.2 - 1.2
01/03:00am 7.6 -4.5 6.1 90 0.7 NNW 59 67 32 36 993.7 994.0 0.8
01/02:37am 7.9 -4.5 6.4 90 0.7 NNW 61 80 33 43 993.9 - 0.8
01/02:30am 7.7 -4.8 6.2 90 0.7 NNW 61 72 33 39 994.0 - 0.8
01/02:00am 7.6 -4.5 6.1 90 0.7 NNW 59 74 32 40 994.3 - 0.8
01/01:30am 7.6 -5.3 6.1 90 0.7 NNW 63 76 34 41 994.5 - 0.8
01/01:00am 7.7 -4.4 6.0 89 0.8 N 59 69 32 37 994.7 - 0.8
01/12:30am 7.6 -5.3 6.1 90 0.7 N 63 72 34 39 995.1 - 0.8
01/12:00am 7.5 -4.6 6.0 90 0.7 N 59 70 32 38 995.7 996.0 0.8
 
Date/Time
EST
Temp
°C
App
Temp
°C
Dew
Point
°C
Rel
Hum
%
Delta-T
°C
Wind Press
QNH
hPa
Press
MSL
hPa
Rain since
9am
mm
Dir  Spd
km/h
Gust
km/h
Spd
kts
Gust
kts
30/11:30pm 7.5 -4.7 5.8 89 0.8 N 59 70 32 38 996.1 - 0.8
30/11:00pm 7.4 -5.2 5.7 89 0.8 N 61 70 33 38 996.6 - 0.6
30/10:30pm 7.3 -5.6 5.8 90 0.7 N 63 70 34 38 997.1 - 0.6
30/10:00pm 7.3 -5.6 5.8 90 0.7 N 63 74 34 40 997.5 - 0.6
30/09:30pm 7.1 -5.1 5.7 91 0.6 N 59 67 32 36 998.1 - 0.6
30/09:00pm 6.9 -5.3 5.7 92 0.5 N 59 67 32 36 998.6 998.9 0.6
30/08:30pm 6.8 -5.4 5.6 92 0.5 N 59 65 32 35 999.1 - 0.6
30/08:00pm 7.1 -5.1 5.6 90 0.7 N 59 69 32 37 999.3 - 0.6
30/07:30pm 7.0 -4.8 5.5 90 0.7 N 57 69 31 37 999.7 - 0.6
30/07:00pm 7.0 -4.9 5.3 89 0.8 N 57 65 31 35 1000.2 - 0.6
30/06:30pm 6.9 -4.8 5.4 90 0.7 N 56 65 30 35 1000.3 - 0.6
30/06:00pm 6.8 -4.5 5.4 91 0.6 N 54 65 29 35 1000.7 1001.0 0.6
30/05:30pm 6.7 -4.2 5.5 92 0.5 N 52 61 28 33 1000.8 - 0.6
30/05:00pm 6.5 -4.4 5.6 94 0.4 N 52 59 28 32 1001.5 - 0.6
30/04:30pm 6.4 -4.1 5.5 94 0.4 N 50 59 27 32 1001.7 - 0.6
30/04:00pm 6.5 -4.4 5.5 93 0.4 N 52 59 28 32 1002.0 - 0.6
30/03:30pm 6.3 -4.2 5.4 94 0.4 N 50 61 27 33 1002.4 - 0.6
30/03:00pm 6.2 -4.7 5.3 94 0.4 N 52 59 28 32 1002.7 1003.0 0.6
30/02:30pm 6.2 -5.1 5.2 93 0.4 N 54 63 29 34 1002.8 - 0.4
30/02:00pm 6.2 -4.8 4.8 91 0.6 N 52 59 28 32 1003.3 - 0.2
30/01:30pm 6.4 -4.7 4.4 87 0.9 N 52 57 28 31 1003.6 - 0.2
30/01:00pm 6.5 -3.9 4.2 85 1.0 N 48 57 26 31 1004.0 - 0.2
30/12:30pm 6.3 -3.4 4.0 85 1.0 N 44 50 24 27 1004.6 - 0.2
30/12:00pm 6.3 -3.4 3.8 84 1.1 N 44 50 24 27 1005.0 1005.3 0.2
30/11:30am 6.2 -3.5 3.9 85 1.0 N 44 52 24 28 1005.6 - 0.0
30/11:00am 6.3 -3.2 3.8 84 1.1 NNW 43 50 23 27 1006.1 - 0.0
30/10:30am 6.1 -3.4 3.8 85 1.0 NNW 43 50 23 27 1006.5 - 0.0
30/10:00am 6.1 -3.4 3.8 85 1.0 NNW 43 50 23 27 1006.9 - 0.0
30/09:30am 5.9 -3.2 4.1 88 0.8 NNW 41 46 22 25 1007.3 - 0.0
30/09:00am 5.9 -3.6 4.1 88 0.8 NNW 43 54 23 29 1007.4 1007.7 1.6
30/08:30am 5.8 -3.7 4.0 88 0.8 NNW 43 50 23 27 1007.7 - 1.6
30/08:00am 5.8 -3.7 3.8 87 0.8 NNW 43 50 23 27 1007.7 - 1.6
30/07:30am 5.7 -3.5 3.5 86 0.9 NNW 41 46 22 25 1007.7 - 1.6
30/07:00am 5.6 -2.8 3.6 87 0.8 NNW 37 43 20 23 1007.8 - 1.6
30/06:30am 5.4 -2.7 3.4 87 0.8 NNW 35 41 19 22 1007.7 - 1.6
30/06:00am 5.4 -2.3 3.4 87 0.8 NNW 33 37 18 20 1007.7 1008.0 1.6
30/05:30am 5.3 -2.3 3.0 85 0.9 NNW 32 39 17 21 1007.7 - 1.6
30/05:00am 5.1 -2.5 2.6 84 1.0 NW 32 39 17 21 1007.8 - 1.6
30/04:30am 5.2 -3.4 2.6 83 1.1 NW 37 46 20 25 1007.7 - 1.6
30/04:00am 5.0 -3.6 2.4 83 1.1 NW 37 44 20 24 1007.6 - 1.6
30/03:30am 5.0 -3.6 2.5 84 1.0 NW 37 43 20 23 1007.5 - 1.6
30/03:00am 4.8 -3.4 2.5 85 0.9 NW 35 43 19 23 1007.6 1007.9 1.6
30/02:30am 4.8 -3.9 2.3 84 1.0 NW 37 44 20 24 1007.5 - 1.6
30/02:00am 4.9 -3.7 2.4 84 1.0 NW 37 46 20 25 1007.5 - 1.6
30/01:30am 4.9 -4.2 1.9 81 1.2 WNW 39 46 21 25 1007.3 - 1.6
30/01:00am 4.9 -3.8 1.9 81 1.2 WNW 37 50 20 27 1007.2 - 1.6
30/12:30am 4.8 -3.9 1.8 81 1.2 WNW 37 44 20 24 1007.1 - 1.6
30/12:00am 4.8 -3.6 1.6 80 1.3 WNW 35 44 19 24 1006.9 1007.2 1.6
 
Date/Time
EST
Temp
°C
App
Temp
°C
Dew
Point
°C
Rel
Hum
%
Delta-T
°C
Wind Press
QNH
hPa
Press
MSL
hPa
Rain since
9am
mm
Dir  Spd
km/h
Gust
km/h
Spd
kts
Gust
kts
29/11:30pm 4.7 -4.4 1.9 82 1.1 WNW 39 48 21 26 1006.7 - 1.6
29/11:00pm 4.3 -4.9 1.3 81 1.2 W 39 52 21 28 1006.4 - 1.6
29/10:30pm 4.3 -5.9 1.0 79 1.3 W 44 54 24 29 1006.0 - 1.6
29/10:00pm 4.2 -6.4 0.7 78 1.3 W 46 56 25 30 1005.6 - 1.6
29/09:30pm 4.0 -6.3 0.3 77 1.4 W 44 57 24 31 1005.4 - 1.6
29/09:00pm 3.9 -6.4 0.2 77 1.4 W 44 56 24 30 1004.9 1005.2 1.6
29/08:30pm 3.8 -6.3 0.1 77 1.4 W 43 61 23 33 1004.3 - 1.6
29/08:25pm 3.8 -6.3 0.1 77 1.4 W 43 61 23 33 1004.3 - 1.6
29/08:00pm 3.8 -8.1 0.0 76 1.4 W 52 63 28 34 1003.3 - 1.6
29/07:30pm 4.3 -6.7 1.0 79 1.3 W 48 69 26 37 1002.3 - 1.6
29/07:00pm 4.1 -5.5 1.0 80 1.2 W 41 72 22 39 1001.8 - 1.6
29/06:30pm 4.4 -6.4 1.9 84 1.0 W 48 70 26 38 1001.3 - 1.6
29/06:00pm 4.5 -7.0 2.5 87 0.8 W 52 74 28 40 1000.4 1000.7 1.6
29/05:58pm 4.4 -7.1 2.4 87 0.8 W 52 74 28 40 1000.2 - 1.6
29/05:30pm 4.7 -4.9 3.2 90 0.6 W 43 52 23 28 999.6 - 1.6
29/05:00pm 4.7 -4.2 2.9 88 0.7 W 39 46 21 25 998.9 - 1.4
29/04:30pm 4.4 -3.2 3.1 91 0.5 W 32 39 17 21 998.3 - 1.4
29/04:00pm 4.1 -1.6 3.1 93 0.4 W 22 26 12 14 997.7 - 1.4
29/03:30pm 3.9 0.7 2.9 93 0.4 WNW 9 11 5 6 997.0 - 1.4
29/03:00pm 3.9 -0.1 2.7 92 0.5 NNW 13 17 7 9 996.8 997.1 1.4
29/02:30pm 4.0 -2.9 2.7 91 0.5 NNW 28 35 15 19 996.5 - 1.2
29/02:00pm 4.1 -4.9 2.5 89 0.6 N 39 46 21 25 996.0 - 0.6
29/01:30pm 4.1 -4.5 2.5 89 0.6 N 37 46 20 25 996.1 - 0.4
29/01:00pm 3.9 -4.0 2.1 88 0.7 NNW 33 43 18 23 996.4 - 0.4
29/12:30pm 4.9 -3.1 1.7 80 1.3 N 33 46 18 25 996.3 - 0.0
29/12:00pm 4.7 -2.8 1.0 77 1.5 N 30 35 16 19 996.7 997.0 0.0
29/11:30am 4.4 -2.8 0.7 77 1.4 N 28 32 15 17 997.0 - 0.0
29/11:00am 4.1 -2.8 0.3 76 1.4 N 26 30 14 16 997.2 - 0.0
29/10:30am 4.2 -2.3 0.5 77 1.4 NNW 24 30 13 16 997.6 - 0.0
29/10:00am 3.9 -2.6 0.2 77 1.4 NNW 24 26 13 14 997.8 - 0.0
29/09:30am 3.3 -2.6 -1.1 73 1.6 NW 20 26 11 14 997.9 - 0.0
29/09:00am 3.4 -3.2 -0.6 75 1.5 NW 24 30 13 16 998.1 998.4 2.4
29/08:30am 3.3 -4.5 -0.5 76 1.4 WNW 30 33 16 18 998.2 - 2.4
29/08:00am 3.3 -5.0 -0.2 78 1.3 WNW 33 39 18 21 998.1 - 2.4
29/07:30am 2.9 -4.4 -0.2 80 1.1 NNW 28 33 15 18 998.2 - 2.4
29/07:00am 3.4 -4.6 0.1 79 1.2 NNW 32 35 17 19 997.9 - 2.4
29/06:30am 3.5 -4.8 0.0 78 1.3 NW 33 41 18 22 997.9 - 2.4
29/06:00am 3.4 -3.7 -1.5 70 1.8 NW 26 33 14 18 997.6 997.9 2.4
29/05:30am 3.3 -4.2 -1.6 70 1.8 NW 28 33 15 18 997.6 - 2.2
29/05:00am 3.2 -3.4 -0.6 76 1.4 WNW 24 32 13 17 997.6 - 2.0
29/04:30am 2.8 -4.3 -1.0 76 1.4 WNW 26 32 14 17 997.7 - 2.0
29/04:00am 2.5 -5.8 -1.7 74 1.5 WNW 32 37 17 20 997.6 - 2.0
29/03:30am 2.1 -5.8 -1.3 78 1.2 W 30 35 16 19 997.6 - 2.0
29/03:00am 2.1 -7.1 -1.3 78 1.2 WNW 37 46 20 25 997.5 997.8 1.8
29/02:59am 2.1 -7.1 -1.2 79 1.2 WNW 37 46 20 25 997.5 - 1.8
29/02:37am 2.1 -6.2 -0.6 82 1.0 W 33 56 18 30 997.8 - 1.8
29/02:30am 2.2 -5.9 -0.5 82 1.0 W 32 43 17 23 997.7 - 1.8
29/02:00am 1.7 -6.6 -0.5 85 0.8 W 33 43 18 23 997.8 - 1.6
29/01:55am 1.5 -7.7 -1.2 82 1.0 W 37 43 20 23 997.8 - 1.6
29/01:49am 1.6 -7.1 -0.8 84 0.9 WNW 35 54 19 29 997.8 - 1.6
29/01:30am 2.2 -6.9 -0.7 81 1.0 W 37 46 20 25 997.7 - 1.4
29/01:00am 2.6 -7.3 -1.0 77 1.3 WNW 41 50 22 27 997.3 - 1.2
29/12:30am 2.5 -7.4 -1.1 77 1.3 WNW 41 46 22 25 996.9 - 1.2
29/12:00am 1.9 -6.4 -0.2 86 0.8 WNW 33 43 18 23 997.0 997.3 1.2
 
Date/Time
EST
Temp
°C
App
Temp
°C
Dew
Point
°C
Rel
Hum
%
Delta-T
°C
Wind Press
QNH
hPa
Press
MSL
hPa
Rain since
9am
mm
Dir  Spd
km/h
Gust
km/h
Spd
kts
Gust
kts
28/11:30pm 1.2 -6.9 -0.4 89 0.6 NW 32 39 17 21 996.8 - 1.2
28/11:00pm 2.7 -7.0 -2.2 70 1.7 WNW 39 46 21 25 996.6 - 1.2
28/10:30pm 2.8 -6.8 -1.4 74 1.5 NW 39 46 21 25 996.4 - 1.2
28/10:00pm 3.0 -7.1 -2.5 67 1.9 WNW 41 48 22 26 996.1 - 1.2
28/09:30pm 3.3 -7.0 -1.3 72 1.7 WNW 43 50 23 27 995.7 - 1.2
28/09:00pm 2.9 -7.5 -1.6 72 1.6 WNW 43 48 23 26 995.5 995.8 1.2
28/08:30pm 3.0 -7.0 -1.4 73 1.6 WNW 41 50 22 27 995.1 - 1.2
28/08:00pm 2.7 -7.6 -1.3 75 1.4 WNW 43 50 23 27 994.7 - 1.2

Other Formats:

Comma delimited format used in spreadsheet applications
http://www.bom.gov.au/fwo/IDT60803/IDT60803.94998.axf

JavaScript Object Notation format (JSON) in row-major order
http://www.bom.gov.au/fwo/IDT60803/IDT60803.94998.json